Portada
METAR-TAF:

METAR-TAF

Aeropuertos :

Estherville Municipal Airport

Estherville, Iowa, Estados Unidos

latitud: 43-24-04N, longitud: 094-44-50W, altitud: 401 m

Observación

El informe se hizo hace 34 minutos, a las 06:52 UTC
Viento 5 kt del este
Temperatura 11°C
Humedad 76%
Presión 1025 hPa
Visibilidad: 16.1 km
Cielo despejado

METAR: KEST 310652Z AUTO 10005KT 10SM CLR 11/07 A3027 RMK AO2 SLP249 T01060072

Hora: 02:26 (07:26 UTC)


TAF: falta

Observaciones y pronósticos meteorológicos de más de 4000 aeropuertos (mensajes METAR y TAF).

Los puntos amarillos y rojos representan las estaciones disponibles.

Ponga el ratón en el punto deseado para ver el nombre de la estación.

Haga clic para ver las observaciones y los pronósticos meteorológicos.

Para cambiar el mapa : haga clic en los botones verdes con una cruz de color negro para hacer un zoom, en el botón verde con un guión para alejar o en las flechas verdes para mapas adyacentes.


METAR-TAF: